sensor_id;sensor_type;location;lat;lon;timestamp;pressure;altitude;pressure_sealevel;temperature;humidity
19795;BME280;10057;59.402;17.866;2024-01-15T00:00:11;98526.34;;;-3.39;81.48
19795;BME280;10057;59.402;17.866;2024-01-15T00:02:38;98517.69;;;-3.38;81.53
19795;BME280;10057;59.402;17.866;2024-01-15T00:05:05;98517.69;;;-3.38;81.58
19795;BME280;10057;59.402;17.866;2024-01-15T00:07:31;98516.81;;;-3.37;81.33
19795;BME280;10057;59.402;17.866;2024-01-15T00:09:58;98517.69;;;-3.38;81.68
19795;BME280;10057;59.402;17.866;2024-01-15T00:12:25;98518.56;;;-3.39;81.28
19795;BME280;10057;59.402;17.866;2024-01-15T00:14:51;98508.19;;;-3.39;81.48
19795;BME280;10057;59.402;17.866;2024-01-15T00:17:18;98507.38;;;-3.41;81.34
19795;BME280;10057;59.402;17.866;2024-01-15T00:19:45;98510.91;;;-3.45;81.20
19795;BME280;10057;59.402;17.866;2024-01-15T00:22:11;98507.47;;;-3.47;80.96
19795;BME280;10057;59.402;17.866;2024-01-15T00:24:38;98495.41;;;-3.48;81.21
19795;BME280;10057;59.402;17.866;2024-01-15T00:27:05;98501.44;;;-3.49;81.30
19795;BME280;10057;59.402;17.866;2024-01-15T00:29:31;98498.00;;;-3.49;81.08
19795;BME280;10057;59.402;17.866;2024-01-15T00:31:58;98499.78;;;-3.51;81.34
19795;BME280;10057;59.402;17.866;2024-01-15T00:34:25;98498.91;;;-3.52;81.34
19795;BME280;10057;59.402;17.866;2024-01-15T00:36:52;98498.03;;;-3.52;81.59
19795;BME280;10057;59.402;17.866;2024-01-15T00:39:18;98491.19;;;-3.55;80.98
19795;BME280;10057;59.402;17.866;2024-01-15T00:41:45;98492.84;;;-3.52;81.72
19795;BME280;10057;59.402;17.866;2024-01-15T00:44:12;98490.25;;;-3.52;80.80
19795;BME280;10057;59.402;17.866;2024-01-15T00:46:45;98492.91;;;-3.54;81.10
19795;BME280;10057;59.402;17.866;2024-01-15T00:49:13;98488.66;;;-3.58;81.04
19795;BME280;10057;59.402;17.866;2024-01-15T00:51:40;98480.03;;;-3.60;81.06
19795;BME280;10057;59.402;17.866;2024-01-15T00:54:07;98478.28;;;-3.58;80.80
19795;BME280;10057;59.402;17.866;2024-01-15T00:56:34;98473.09;;;-3.58;81.18
19795;BME280;10057;59.402;17.866;2024-01-15T00:59:01;98479.97;;;-3.57;80.74
19795;BME280;10057;59.402;17.866;2024-01-15T01:01:28;98473.94;;;-3.58;80.75
19795;BME280;10057;59.402;17.866;2024-01-15T01:03:54;98481.75;;;-3.61;80.93
19795;BME280;10057;59.402;17.866;2024-01-15T01:06:21;98469.66;;;-3.60;80.63
19795;BME280;10057;59.402;17.866;2024-01-15T01:08:48;98475.69;;;-3.60;80.83
19795;BME280;10057;59.402;17.866;2024-01-15T01:11:15;98484.34;;;-3.61;81.05
19795;BME280;10057;59.402;17.866;2024-01-15T01:13:42;98470.50;;;-3.60;80.82
19795;BME280;10057;59.402;17.866;2024-01-15T01:16:09;98476.53;;;-3.59;80.70
19795;BME280;10057;59.402;17.866;2024-01-15T01:18:35;98475.69;;;-3.60;81.00
19795;BME280;10057;59.402;17.866;2024-01-15T01:21:03;98473.94;;;-3.59;80.98
19795;BME280;10057;59.402;17.866;2024-01-15T01:23:30;98474.84;;;-3.59;80.50
19795;BME280;10057;59.402;17.866;2024-01-15T01:25:56;98469.66;;;-3.60;80.69
19795;BME280;10057;59.402;17.866;2024-01-15T01:28:23;98469.69;;;-3.62;81.18
19795;BME280;10057;59.402;17.866;2024-01-15T01:30:50;98478.31;;;-3.63;80.88
19795;BME280;10057;59.402;17.866;2024-01-15T01:33:17;98470.63;;;-3.66;80.23
19795;BME280;10057;59.402;17.866;2024-01-15T01:35:44;98473.22;;;-3.67;80.59
19795;BME280;10057;59.402;17.866;2024-01-15T01:38:12;98470.72;;;-3.73;80.16
19795;BME280;10057;59.402;17.866;2024-01-15T01:40:38;98473.34;;;-3.75;80.58
19795;BME280;10057;59.402;17.866;2024-01-15T01:43:05;98469.06;;;-3.77;80.52
19795;BME280;10057;59.402;17.866;2024-01-15T01:45:32;98476.00;;;-3.78;80.67
19795;BME280;10057;59.402;17.866;2024-01-15T01:48:00;98475.16;;;-3.78;80.01
19795;BME280;10057;59.402;17.866;2024-01-15T01:50:29;98466.53;;;-3.79;80.47
19795;BME280;10057;59.402;17.866;2024-01-15T01:52:56;98466.47;;;-3.77;80.60
19795;BME280;10057;59.402;17.866;2024-01-15T01:55:24;98465.69;;;-3.81;80.70
19795;BME280;10057;59.402;17.866;2024-01-15T01:57:53;98466.59;;;-3.85;80.49
19795;BME280;10057;59.402;17.866;2024-01-15T02:00:20;98467.50;;;-3.88;80.13
19795;BME280;10057;59.402;17.866;2024-01-15T02:02:47;98474.44;;;-3.90;80.35
19795;BME280;10057;59.402;17.866;2024-01-15T02:05:18;98471.03;;;-3.92;80.36
19795;BME280;10057;59.402;17.866;2024-01-15T02:07:45;98474.50;;;-3.93;80.35
19795;BME280;10057;59.402;17.866;2024-01-15T02:10:11;98479.69;;;-3.93;80.39
19795;BME280;10057;59.402;17.866;2024-01-15T02:12:38;98485.72;;;-3.94;80.45
19795;BME280;10057;59.402;17.866;2024-01-15T02:15:05;98476.28;;;-3.96;80.54
19795;BME280;10057;59.402;17.866;2024-01-15T02:17:32;98465.91;;;-3.96;80.12
19795;BME280;10057;59.402;17.866;2024-01-15T02:19:59;98473.69;;;-3.98;80.48
19795;BME280;10057;59.402;17.866;2024-01-15T02:22:25;98473.69;;;-3.98;80.54
19795;BME280;10057;59.402;17.866;2024-01-15T02:24:52;98472.84;;;-3.98;80.55
19795;BME280;10057;59.402;17.866;2024-01-15T02:27:19;98469.38;;;-3.97;80.58
19795;BME280;10057;59.402;17.866;2024-01-15T02:29:47;98466.81;;;-3.99;80.21
19795;BME280;10057;59.402;17.866;2024-01-15T02:32:14;98472.00;;;-4.00;80.24
19795;BME280;10057;59.402;17.866;2024-01-15T02:34:41;98470.28;;;-4.00;80.34
19795;BME280;10057;59.402;17.866;2024-01-15T02:37:07;98466.00;;;-4.02;80.48
19795;BME280;10057;59.402;17.866;2024-01-15T02:39:34;98464.22;;;-4.00;79.86
19795;BME280;10057;59.402;17.866;2024-01-15T02:42:01;98464.22;;;-4.00;80.35
19795;BME280;10057;59.402;17.866;2024-01-15T02:44:27;98463.38;;;-4.01;80.23
19795;BME280;10057;59.402;17.866;2024-01-15T02:46:54;98470.31;;;-4.01;80.22
19795;BME280;10057;59.402;17.866;2024-01-15T02:49:21;98459.09;;;-4.03;79.79
19795;BME280;10057;59.402;17.866;2024-01-15T02:51:47;98454.78;;;-4.03;80.26
19795;BME280;10057;59.402;17.866;2024-01-15T02:54:14;98453.06;;;-4.04;79.96
19795;BME280;10057;59.402;17.866;2024-01-15T02:56:41;98471.19;;;-4.04;79.89
19795;BME280;10057;59.402;17.866;2024-01-15T02:59:08;98458.25;;;-4.04;79.90
19795;BME280;10057;59.402;17.866;2024-01-15T03:01:34;98476.38;;;-4.02;80.11
19795;BME280;10057;59.402;17.866;2024-01-15T03:04:01;98455.66;;;-4.04;80.29
19795;BME280;10057;59.402;17.866;2024-01-15T03:06:28;98460.84;;;-4.04;79.97
19795;BME280;10057;59.402;17.866;2024-01-15T03:08:54;98461.72;;;-4.05;80.00
19795;BME280;10057;59.402;17.866;2024-01-15T03:11:21;98471.22;;;-4.06;79.76
19795;BME280;10057;59.402;17.866;2024-01-15T03:13:47;98465.16;;;-4.05;79.93
19795;BME280;10057;59.402;17.866;2024-01-15T03:16:14;98472.06;;;-4.05;80.02
19795;BME280;10057;59.402;17.866;2024-01-15T03:18:41;98467.75;;;-4.05;79.86
19795;BME280;10057;59.402;17.866;2024-01-15T03:21:07;98467.75;;;-4.05;79.73
19795;BME280;10057;59.402;17.866;2024-01-15T03:23:34;98463.41;;;-4.04;79.91
19795;BME280;10057;59.402;17.866;2024-01-15T03:26:01;98469.50;;;-4.05;79.70
19795;BME280;10057;59.402;17.866;2024-01-15T03:28:27;98463.47;;;-4.06;80.25
19795;BME280;10057;59.402;17.866;2024-01-15T03:30:56;98460.88;;;-4.07;79.84
19795;BME280;10057;59.402;17.866;2024-01-15T03:33:23;98466.09;;;-4.09;80.01
19795;BME280;10057;59.402;17.866;2024-01-15T03:35:50;98460.09;;;-4.12;79.77
19795;BME280;10057;59.402;17.866;2024-01-15T03:38:17;98460.06;;;-4.11;79.64
19795;BME280;10057;59.402;17.866;2024-01-15T03:40:43;98475.63;;;-4.12;79.73
19795;BME280;10057;59.402;17.866;2024-01-15T03:43:10;98455.81;;;-4.15;79.49
19795;BME280;10057;59.402;17.866;2024-01-15T03:45:37;98461.88;;;-4.16;80.04
19795;BME280;10057;59.402;17.866;2024-01-15T03:48:04;98458.44;;;-4.16;79.48
19795;BME280;10057;59.402;17.866;2024-01-15T03:50:31;98462.72;;;-4.15;80.05
19795;BME280;10057;59.402;17.866;2024-01-15T03:52:57;98459.28;;;-4.17;80.04
19795;BME280;10057;59.402;17.866;2024-01-15T03:55:24;98461.88;;;-4.16;79.91
19795;BME280;10057;59.402;17.866;2024-01-15T03:57:51;98458.44;;;-4.16;79.87
19795;BME280;10057;59.402;17.866;2024-01-15T04:00:18;98461.88;;;-4.17;79.71
19795;BME280;10057;59.402;17.866;2024-01-15T04:02:44;98467.97;;;-4.20;79.71
19795;BME280;10057;59.402;17.866;2024-01-15T04:05:11;98464.53;;;-4.20;80.00
19795;BME280;10057;59.402;17.866;2024-01-15T04:07:38;98476.59;;;-4.21;79.75
19795;BME280;10057;59.402;17.866;2024-01-15T04:10:05;98463.69;;;-4.22;79.44
19795;BME280;10057;59.402;17.866;2024-01-15T04:12:32;98472.34;;;-4.23;79.85
19795;BME280;10057;59.402;17.866;2024-01-15T04:14:59;98467.22;;;-4.26;79.52
19795;BME280;10057;59.402;17.866;2024-01-15T04:17:27;98462.03;;;-4.26;79.77
19795;BME280;10057;59.402;17.866;2024-01-15T04:19:53;98474.13;;;-4.27;79.42
19795;BME280;10057;59.402;17.866;2024-01-15T04:22:20;98480.19;;;-4.30;79.20
19795;BME280;10057;59.402;17.866;2024-01-15T04:24:47;98475.03;;;-4.31;79.42
19795;BME280;10057;59.402;17.866;2024-01-15T04:27:14;98478.53;;;-4.34;79.44
19795;BME280;10057;59.402;17.866;2024-01-15T04:29:40;98481.16;;;-4.37;78.99
19795;BME280;10057;59.402;17.866;2024-01-15T04:32:07;98491.53;;;-4.40;78.98
19795;BME280;10057;59.402;17.866;2024-01-15T04:34:34;98488.97;;;-4.41;79.38
19795;BME280;10057;59.402;17.866;2024-01-15T04:37:01;98485.56;;;-4.43;79.33
19795;BME280;10057;59.402;17.866;2024-01-15T04:39:28;98492.47;;;-4.45;79.06
19795;BME280;10057;59.402;17.866;2024-01-15T04:41:55;98483.03;;;-4.49;78.72
19795;BME280;10057;59.402;17.866;2024-01-15T04:44:22;98485.63;;;-4.49;79.03
19795;BME280;10057;59.402;17.866;2024-01-15T04:46:48;98490.84;;;-4.53;79.03
19795;BME280;10057;59.402;17.866;2024-01-15T04:49:15;98492.53;;;-4.50;79.14
19795;BME280;10057;59.402;17.866;2024-01-15T04:51:42;98494.28;;;-4.52;78.97
19795;BME280;10057;59.402;17.866;2024-01-15T04:54:09;98504.63;;;-4.52;79.07
19795;BME280;10057;59.402;17.866;2024-01-15T04:56:35;98487.44;;;-4.56;78.72
19795;BME280;10057;59.402;17.866;2024-01-15T04:59:02;98491.75;;;-4.57;78.98
19795;BME280;10057;59.402;17.866;2024-01-15T05:01:32;98481.47;;;-4.61;78.48
19795;BME280;10057;59.402;17.866;2024-01-15T05:03:59;98488.38;;;-4.63;78.52
19795;BME280;10057;59.402;17.866;2024-01-15T05:06:26;98486.69;;;-4.64;78.65
19795;BME280;10057;59.402;17.866;2024-01-15T05:08:53;98486.69;;;-4.64;78.89
19795;BME280;10057;59.402;17.866;2024-01-15T05:11:20;98488.41;;;-4.66;79.05
19795;BME280;10057;59.402;17.866;2024-01-15T05:13:46;98490.16;;;-4.67;78.86
19795;BME280;10057;59.402;17.866;2024-01-15T05:16:13;98496.19;;;-4.66;79.01
19795;BME280;10057;59.402;17.866;2024-01-15T05:18:40;98495.31;;;-4.68;78.91
19795;BME280;10057;59.402;17.866;2024-01-15T05:21:06;98488.44;;;-4.69;78.81
19795;BME280;10057;59.402;17.866;2024-01-15T05:23:34;98483.31;;;-4.71;78.47
19795;BME280;10057;59.402;17.866;2024-01-15T05:26:00;98486.78;;;-4.73;78.70
19795;BME280;10057;59.402;17.866;2024-01-15T05:28:27;98484.16;;;-4.72;79.26
19795;BME280;10057;59.402;17.866;2024-01-15T05:30:54;98482.47;;;-4.74;78.57
19795;BME280;10057;59.402;17.866;2024-01-15T05:33:25;98485.91;;;-4.74;78.70
19795;BME280;10057;59.402;17.866;2024-01-15T05:35:51;98478.16;;;-4.74;78.65
19795;BME280;10057;59.402;17.866;2024-01-15T05:38:20;98492.84;;;-4.76;78.66
19795;BME280;10057;59.402;17.866;2024-01-15T05:40:46;98491.13;;;-4.77;78.82
19795;BME280;10057;59.402;17.866;2024-01-15T05:43:13;98495.41;;;-4.76;78.47
19795;BME280;10057;59.402;17.866;2024-01-15T05:45:43;98498.88;;;-4.77;78.87
19795;BME280;10057;59.402;17.866;2024-01-15T05:48:11;98493.72;;;-4.77;78.18
19795;BME280;10057;59.402;17.866;2024-01-15T05:50:39;98490.28;;;-4.78;78.57
19795;BME280;10057;59.402;17.866;2024-01-15T05:53:05;98498.03;;;-4.78;78.16
19795;BME280;10057;59.402;17.866;2024-01-15T05:55:32;98487.72;;;-4.81;77.89
19795;BME280;10057;59.402;17.866;2024-01-15T05:57:58;98495.47;;;-4.81;77.69
19795;BME280;10057;59.402;17.866;2024-01-15T06:00:25;98481.69;;;-4.83;78.07
19795;BME280;10057;59.402;17.866;2024-01-15T06:02:52;98496.41;;;-4.85;77.86
19795;BME280;10057;59.402;17.866;2024-01-15T06:05:19;98505.00;;;-4.86;77.82
19795;BME280;10057;59.402;17.866;2024-01-15T06:07:45;98492.97;;;-4.87;77.51
19795;BME280;10057;59.402;17.866;2024-01-15T06:10:12;98490.38;;;-4.87;77.79
19795;BME280;10057;59.402;17.866;2024-01-15T06:12:39;98510.19;;;-4.86;77.46
19795;BME280;10057;59.402;17.866;2024-01-15T06:15:05;98508.47;;;-4.85;77.51
19795;BME280;10057;59.402;17.866;2024-01-15T06:17:32;98509.31;;;-4.85;78.01
19795;BME280;10057;59.402;17.866;2024-01-15T06:19:59;98510.19;;;-4.86;77.32
19795;BME280;10057;59.402;17.866;2024-01-15T06:22:26;98511.91;;;-4.86;77.71
19795;BME280;10057;59.402;17.866;2024-01-15T06:24:52;98522.28;;;-4.88;77.64
19795;BME280;10057;59.402;17.866;2024-01-15T06:27:19;98515.38;;;-4.87;78.12
19795;BME280;10057;59.402;17.866;2024-01-15T06:29:46;98514.53;;;-4.89;77.96
19795;BME280;10057;59.402;17.866;2024-01-15T06:32:16;98516.25;;;-4.88;77.97
19795;BME280;10057;59.402;17.866;2024-01-15T06:34:43;98511.09;;;-4.90;78.06
19795;BME280;10057;59.402;17.866;2024-01-15T06:37:10;98516.25;;;-4.90;78.03
19795;BME280;10057;59.402;17.866;2024-01-15T06:39:36;98504.22;;;-4.91;77.17
19795;BME280;10057;59.402;17.866;2024-01-15T06:42:03;98506.81;;;-4.91;77.45
19795;BME280;10057;59.402;17.866;2024-01-15T06:44:30;98507.69;;;-4.92;77.39
19795;BME280;10057;59.402;17.866;2024-01-15T06:46:57;98511.13;;;-4.93;77.36
19795;BME280;10057;59.402;17.866;2024-01-15T06:49:29;98520.63;;;-4.95;77.29
19795;BME280;10057;59.402;17.866;2024-01-15T06:51:56;98518.06;;;-4.95;77.75
19795;BME280;10057;59.402;17.866;2024-01-15T06:54:23;98514.59;;;-4.94;77.70
19795;BME280;10057;59.402;17.866;2024-01-15T06:56:50;98529.22;;;-4.93;77.80
19795;BME280;10057;59.402;17.866;2024-01-15T06:59:17;98524.06;;;-4.93;77.88
19795;BME280;10057;59.402;17.866;2024-01-15T07:01:45;98528.41;;;-4.95;77.70
19795;BME280;10057;59.402;17.866;2024-01-15T07:04:13;98529.25;;;-4.94;77.75
19795;BME280;10057;59.402;17.866;2024-01-15T07:06:40;98537.00;;;-4.94;77.37
19795;BME280;10057;59.402;17.866;2024-01-15T07:09:06;98530.97;;;-4.93;77.74
19795;BME280;10057;59.402;17.866;2024-01-15T07:11:34;98532.69;;;-4.94;77.52
19795;BME280;10057;59.402;17.866;2024-01-15T07:14:01;98536.16;;;-4.95;76.86
19795;BME280;10057;59.402;17.866;2024-01-15T07:16:28;98535.28;;;-4.94;77.63
19795;BME280;10057;59.402;17.866;2024-01-15T07:19:03;98543.91;;;-4.95;77.47
19795;BME280;10057;59.402;17.866;2024-01-15T07:21:30;98538.75;;;-4.95;77.52
19795;BME280;10057;59.402;17.866;2024-01-15T07:23:57;98549.06;;;-4.93;77.78
19795;BME280;10057;59.402;17.866;2024-01-15T07:26:24;98537.91;;;-4.95;77.18
19795;BME280;10057;59.402;17.866;2024-01-15T07:28:51;98543.03;;;-4.94;77.54
19795;BME280;10057;59.402;17.866;2024-01-15T07:31:19;98549.94;;;-4.94;77.30
19795;BME280;10057;59.402;17.866;2024-01-15T07:33:45;98549.09;;;-4.95;77.59
19795;BME280;10057;59.402;17.866;2024-01-15T07:36:13;98546.47;;;-4.93;77.48
19795;BME280;10057;59.402;17.866;2024-01-15T07:38:39;98553.38;;;-4.94;77.52
19795;BME280;10057;59.402;17.866;2024-01-15T07:41:06;98556.81;;;-4.92;77.66
19795;BME280;10057;59.402;17.866;2024-01-15T07:43:32;98555.97;;;-4.94;76.70
19795;BME280;10057;59.402;17.866;2024-01-15T07:46:00;98550.78;;;-4.94;77.24
19795;BME280;10057;59.402;17.866;2024-01-15T07:48:27;98555.13;;;-4.96;77.10
19795;BME280;10057;59.402;17.866;2024-01-15T07:50:54;98558.56;;;-4.94;77.43
19795;BME280;10057;59.402;17.866;2024-01-15T07:53:21;98560.25;;;-4.93;77.08
19795;BME280;10057;59.402;17.866;2024-01-15T07:55:47;98563.69;;;-4.92;76.98
19795;BME280;10057;59.402;17.866;2024-01-15T07:58:14;98559.41;;;-4.92;77.24
19795;BME280;10057;59.402;17.866;2024-01-15T08:00:42;98565.44;;;-4.93;77.23
19795;BME280;10057;59.402;17.866;2024-01-15T08:03:11;98561.16;;;-4.94;76.77
19795;BME280;10057;59.402;17.866;2024-01-15T08:05:38;98568.03;;;-4.91;76.93
19795;BME280;10057;59.402;17.866;2024-01-15T08:08:05;98562.88;;;-4.94;77.05
19795;BME280;10057;59.402;17.866;2024-01-15T08:10:31;98562.00;;;-4.92;77.18
19795;BME280;10057;59.402;17.866;2024-01-15T08:12:58;98558.53;;;-4.91;77.32
19795;BME280;10057;59.402;17.866;2024-01-15T08:15:25;98563.69;;;-4.91;77.36
19795;BME280;10057;59.402;17.866;2024-01-15T08:17:56;98561.97;;;-4.90;77.41
19795;BME280;10057;59.402;17.866;2024-01-15T08:20:23;98561.97;;;-4.89;76.62
19795;BME280;10057;59.402;17.866;2024-01-15T08:22:50;98564.59;;;-4.92;76.78
19795;BME280;10057;59.402;17.866;2024-01-15T08:25:17;98583.53;;;-4.93;76.65
19795;BME280;10057;59.402;17.866;2024-01-15T08:27:44;98576.66;;;-4.94;76.59
19795;BME280;10057;59.402;17.866;2024-01-15T08:30:11;98580.09;;;-4.92;77.02
19795;BME280;10057;59.402;17.866;2024-01-15T08:32:38;98586.97;;;-4.91;77.11
19795;BME280;10057;59.402;17.866;2024-01-15T08:35:08;98577.50;;;-4.90;76.48
19795;BME280;10057;59.402;17.866;2024-01-15T08:37:36;98578.34;;;-4.90;77.01
19795;BME280;10057;59.402;17.866;2024-01-15T08:40:03;98586.94;;;-4.89;76.47
19795;BME280;10057;59.402;17.866;2024-01-15T08:42:30;98582.66;;;-4.89;76.26
19795;BME280;10057;59.402;17.866;2024-01-15T08:44:56;98580.94;;;-4.90;76.18
19795;BME280;10057;59.402;17.866;2024-01-15T08:47:23;98591.25;;;-4.87;76.90
19795;BME280;10057;59.402;17.866;2024-01-15T08:49:51;98574.03;;;-4.88;76.16
19795;BME280;10057;59.402;17.866;2024-01-15T08:52:18;98580.91;;;-4.87;76.13
19795;BME280;10057;59.402;17.866;2024-01-15T08:54:45;98588.63;;;-4.84;76.83
19795;BME280;10057;59.402;17.866;2024-01-15T08:57:11;98576.56;;;-4.83;76.26
19795;BME280;10057;59.402;17.866;2024-01-15T08:59:38;98580.84;;;-4.82;76.61
19795;BME280;10057;59.402;17.866;2024-01-15T09:02:05;98590.34;;;-4.83;76.61
19795;BME280;10057;59.402;17.866;2024-01-15T09:04:31;98581.72;;;-4.82;76.51
19795;BME280;10057;59.402;17.866;2024-01-15T09:06:58;98577.38;;;-4.78;76.21
19795;BME280;10057;59.402;17.866;2024-01-15T09:09:25;98586.00;;;-4.78;76.12
19795;BME280;10057;59.402;17.866;2024-01-15T09:11:51;98581.66;;;-4.76;76.08
19795;BME280;10057;59.402;17.866;2024-01-15T09:14:18;98569.59;;;-4.77;76.14
19795;BME280;10057;59.402;17.866;2024-01-15T09:17:01;98583.38;;;-4.74;76.15
19795;BME280;10057;59.402;17.866;2024-01-15T09:19:29;98579.06;;;-4.74;76.33
19795;BME280;10057;59.402;17.866;2024-01-15T09:21:56;98573.88;;;-4.74;76.10
19795;BME280;10057;59.402;17.866;2024-01-15T09:24:23;98585.09;;;-4.73;75.70
19795;BME280;10057;59.402;17.866;2024-01-15T09:26:54;98587.63;;;-4.72;75.77
19795;BME280;10057;59.402;17.866;2024-01-15T09:29:20;98593.69;;;-4.71;76.46
19795;BME280;10057;59.402;17.866;2024-01-15T09:31:47;98599.69;;;-4.68;76.03
19795;BME280;10057;59.402;17.866;2024-01-15T09:34:14;98601.44;;;-4.70;76.22
19795;BME280;10057;59.402;17.866;2024-01-15T09:36:42;98602.28;;;-4.69;76.01
19795;BME280;10057;59.402;17.866;2024-01-15T09:39:09;98604.88;;;-4.68;76.02
19795;BME280;10057;59.402;17.866;2024-01-15T09:41:37;98605.72;;;-4.67;75.87
19795;BME280;10057;59.402;17.866;2024-01-15T09:44:05;98613.47;;;-4.66;75.73
19795;BME280;10057;59.402;17.866;2024-01-15T09:46:32;98607.41;;;-4.63;75.34
19795;BME280;10057;59.402;17.866;2024-01-15T09:48:59;98600.53;;;-4.64;75.07
19795;BME280;10057;59.402;17.866;2024-01-15T09:51:26;98607.41;;;-4.63;75.24
19795;BME280;10057;59.402;17.866;2024-01-15T09:53:55;98604.84;;;-4.65;75.40
19795;BME280;10057;59.402;17.866;2024-01-15T09:56:21;98599.66;;;-4.66;74.83
19795;BME280;10057;59.402;17.866;2024-01-15T09:58:48;98597.09;;;-4.65;75.03
19795;BME280;10057;59.402;17.866;2024-01-15T10:01:17;98611.72;;;-4.64;75.47
19795;BME280;10057;59.402;17.866;2024-01-15T10:03:46;98602.22;;;-4.63;75.72
19795;BME280;10057;59.402;17.866;2024-01-15T10:06:17;98601.38;;;-4.65;75.36
19795;BME280;10057;59.402;17.866;2024-01-15T10:08:51;98609.97;;;-4.62;75.58
19795;BME280;10057;59.402;17.866;2024-01-15T10:11:18;98608.19;;;-4.58;75.95
19795;BME280;10057;59.402;17.866;2024-01-15T10:13:45;98613.38;;;-4.57;75.34
19795;BME280;10057;59.402;17.866;2024-01-15T10:16:15;98618.53;;;-4.55;75.15
19795;BME280;10057;59.402;17.866;2024-01-15T10:18:42;98612.50;;;-4.56;75.29
19795;BME280;10057;59.402;17.866;2024-01-15T10:21:09;98614.22;;;-4.55;75.28
19795;BME280;10057;59.402;17.866;2024-01-15T10:23:36;98625.44;;;-4.56;75.54
19795;BME280;10057;59.402;17.866;2024-01-15T10:26:03;98632.38;;;-4.58;75.04
19795;BME280;10057;59.402;17.866;2024-01-15T10:28:30;98634.97;;;-4.59;75.07
19795;BME280;10057;59.402;17.866;2024-01-15T10:30:59;98627.22;;;-4.61;74.88
19795;BME280;10057;59.402;17.866;2024-01-15T10:33:26;98610.84;;;-4.63;74.80
19795;BME280;10057;59.402;17.866;2024-01-15T10:35:55;98610.88;;;-4.64;74.69
19795;BME280;10057;59.402;17.866;2024-01-15T10:38:22;98622.97;;;-4.65;74.51
19795;BME280;10057;59.402;17.866;2024-01-15T10:40:53;98622.97;;;-4.66;74.83
19795;BME280;10057;59.402;17.866;2024-01-15T10:43:21;98628.13;;;-4.65;74.74
19795;BME280;10057;59.402;17.866;2024-01-15T10:45:51;98635.91;;;-4.66;74.71
19795;BME280;10057;59.402;17.866;2024-01-15T10:48:18;98628.97;;;-4.66;74.58
19795;BME280;10057;59.402;17.866;2024-01-15T10:50:48;98635.03;;;-4.68;74.54
19795;BME280;10057;59.402;17.866;2024-01-15T10:53:16;98628.13;;;-4.66;75.09
19795;BME280;10057;59.402;17.866;2024-01-15T10:55:46;98638.47;;;-4.66;74.36
19795;BME280;10057;59.402;17.866;2024-01-15T10:58:15;98629.84;;;-4.64;75.25
19795;BME280;10057;59.402;17.866;2024-01-15T11:00:43;98632.41;;;-4.62;74.83
19795;BME280;10057;59.402;17.866;2024-01-15T11:03:10;98635.88;;;-4.63;75.05
19795;BME280;10057;59.402;17.866;2024-01-15T11:05:43;98628.09;;;-4.63;74.80
19795;BME280;10057;59.402;17.866;2024-01-15T11:08:10;98637.56;;;-4.58;75.68
19795;BME280;10057;59.402;17.866;2024-01-15T11:10:39;98628.09;;;-4.60;75.12
19795;BME280;10057;59.402;17.866;2024-01-15T11:13:55;98630.69;;;-4.63;74.26
19795;BME280;10057;59.402;17.866;2024-01-15T11:16:04;98625.53;;;-4.66;74.22
19795;BME280;10057;59.402;17.866;2024-01-15T11:18:35;98627.31;;;-4.70;74.11
19795;BME280;10057;59.402;17.866;2024-01-15T11:26:52;98621.31;;;-4.73;73.14
19795;BME280;10057;59.402;17.866;2024-01-15T11:32:01;98619.63;;;-4.78;73.39
19795;BME280;10057;59.402;17.866;2024-01-15T11:34:57;98615.28;;;-4.76;73.08
19795;BME280;10057;59.402;17.866;2024-01-15T11:37:27;98614.44;;;-4.74;73.60
19795;BME280;10057;59.402;17.866;2024-01-15T11:39:56;98607.50;;;-4.74;73.57
19795;BME280;10057;59.402;17.866;2024-01-15T11:42:27;98610.94;;;-4.70;73.95
19795;BME280;10057;59.402;17.866;2024-01-15T11:44:54;98616.94;;;-4.67;74.81
19795;BME280;10057;59.402;17.866;2024-01-15T11:50:11;98614.28;;;-4.62;73.96
19795;BME280;10057;59.402;17.866;2024-01-15T11:52:38;98624.63;;;-4.62;74.39
19795;BME280;10057;59.402;17.866;2024-01-15T11:55:16;98633.28;;;-4.63;73.86
19795;BME280;10057;59.402;17.866;2024-01-15T11:57:52;98629.84;;;-4.65;73.40
19795;BME280;10057;59.402;17.866;2024-01-15T12:00:22;98633.34;;;-4.69;73.63
19795;BME280;10057;59.402;17.866;2024-01-15T12:02:50;98623.81;;;-4.66;74.10
19795;BME280;10057;59.402;17.866;2024-01-15T12:05:20;98632.44;;;-4.65;74.23
19795;BME280;10057;59.402;17.866;2024-01-15T12:07:49;98631.56;;;-4.64;73.60
19795;BME280;10057;59.402;17.866;2024-01-15T12:10:20;98629.00;;;-4.64;74.02
19795;BME280;10057;59.402;17.866;2024-01-15T12:15:24;98622.09;;;-4.67;73.95
19795;BME280;10057;59.402;17.866;2024-01-15T12:17:52;98629.91;;;-4.70;74.04
19795;BME280;10057;59.402;17.866;2024-01-15T12:20:19;98632.53;;;-4.74;73.49
19795;BME280;10057;59.402;17.866;2024-01-15T12:22:46;98631.69;;;-4.77;73.04
19795;BME280;10057;59.402;17.866;2024-01-15T12:25:27;98642.06;;;-4.80;73.72
19795;BME280;10057;59.402;17.866;2024-01-15T12:27:54;98626.56;;;-4.81;73.50
19795;BME280;10057;59.402;17.866;2024-01-15T12:30:21;98640.38;;;-4.84;73.27
19795;BME280;10057;59.402;17.866;2024-01-15T12:32:48;98630.03;;;-4.84;74.13
19795;BME280;10057;59.402;17.866;2024-01-15T12:35:15;98634.31;;;-4.83;74.16
19795;BME280;10057;59.402;17.866;2024-01-15T12:37:43;98626.56;;;-4.86;73.20
19795;BME280;10057;59.402;17.866;2024-01-15T12:40:10;98637.81;;;-4.87;73.92
19795;BME280;10057;59.402;17.866;2024-01-15T12:42:39;98624.91;;;-4.90;73.92
19795;BME280;10057;59.402;17.866;2024-01-15T12:45:06;98626.63;;;-4.89;74.17
19795;BME280;10057;59.402;17.866;2024-01-15T12:47:34;98635.25;;;-4.88;74.42
19795;BME280;10057;59.402;17.866;2024-01-15T12:50:02;98628.34;;;-4.88;74.15
19795;BME280;10057;59.402;17.866;2024-01-15T12:52:44;98640.41;;;-4.90;73.43
19795;BME280;10057;59.402;17.866;2024-01-15T12:55:10;98634.38;;;-4.90;74.37
19795;BME280;10057;59.402;17.866;2024-01-15T12:57:37;98634.41;;;-4.92;74.11
19795;BME280;10057;59.402;17.866;2024-01-15T13:00:05;98644.72;;;-4.87;74.74
19795;BME280;10057;59.402;17.866;2024-01-15T13:02:34;98637.84;;;-4.88;74.66
19795;BME280;10057;59.402;17.866;2024-01-15T13:05:01;98641.28;;;-4.88;74.07